createdAt,value
2016-07-06T00:00:13.936Z,49.37
2016-07-06T00:01:13.485Z,48.88
2016-07-06T00:02:13.991Z,48.79
2016-07-06T00:03:13.330Z,49.37
2016-07-06T00:04:15.064Z,49.27
2016-07-06T00:05:13.969Z,49.07
2016-07-06T00:06:13.959Z,48.97
2016-07-06T00:07:13.979Z,49.27
2016-07-06T00:08:13.988Z,48.88
2016-07-06T00:09:13.990Z,48.79
2016-07-06T00:10:13.994Z,49.37
2016-07-06T00:11:14.004Z,49.17
2016-07-06T00:12:13.393Z,49.27
2016-07-06T00:13:14.008Z,49.27
2016-07-06T00:14:13.404Z,49.27
2016-07-06T00:15:14.719Z,49.07
2016-07-06T00:16:13.418Z,48.49
2016-07-06T00:17:13.621Z,49.34
2016-07-06T00:18:14.040Z,48.88
2016-07-06T00:19:14.036Z,48.88
2016-07-06T00:20:14.046Z,49.55
2016-07-06T00:21:13.450Z,49.46
2016-07-06T00:22:13.452Z,48.97
2016-07-06T00:23:14.068Z,48.97
2016-07-06T00:24:14.080Z,49.07
2016-07-06T00:25:14.076Z,49.07
2016-07-06T00:26:14.231Z,48.79
2016-07-06T00:27:13.470Z,48.79
2016-07-06T00:28:13.478Z,49.27
2016-07-06T00:29:13.486Z,49.37
2016-07-06T00:30:13.494Z,48.69
2016-07-06T00:31:13.499Z,49.07
2016-07-06T00:32:14.119Z,49.17
2016-07-06T00:33:13.514Z,48.88
2016-07-06T00:34:13.504Z,49.37
2016-07-06T00:35:13.514Z,49.46
2016-07-06T00:36:13.528Z,48.69
2016-07-06T00:37:14.147Z,48.97
2016-07-06T00:38:14.155Z,48.69
2016-07-06T00:39:13.538Z,48.97
2016-07-06T00:40:13.551Z,49.53
2016-07-06T00:41:14.510Z,48.97
2016-07-06T00:42:14.181Z,48.97
2016-07-06T00:43:13.568Z,49.05
2016-07-06T00:44:14.187Z,48.88
2016-07-06T00:45:13.582Z,48.88
2016-07-06T00:46:14.197Z,49.75
2016-07-06T00:47:13.590Z,48.69
2016-07-06T00:48:13.597Z,48.86
2016-07-06T00:49:14.215Z,48.97
2016-07-06T00:50:15.013Z,49.15
2016-07-06T00:51:13.611Z,48.76
2016-07-06T00:52:13.867Z,48.95
2016-07-06T00:53:14.226Z,49.17
2016-07-06T00:54:14.231Z,48.97
2016-07-06T00:55:14.247Z,48.76
2016-07-06T00:56:13.641Z,49.05
2016-07-06T00:57:13.647Z,49.05
2016-07-06T00:58:13.654Z,48.76
2016-07-06T00:59:14.274Z,49.15
2016-07-06T01:00:13.665Z,49.07
2016-07-06T01:01:14.125Z,48.95
2016-07-06T01:02:13.675Z,49.15
2016-07-06T01:03:14.344Z,49.73
2016-07-06T01:04:14.297Z,48.86
2016-07-06T01:05:13.690Z,49.24
2016-07-06T01:06:14.311Z,49.63
2016-07-06T01:07:13.700Z,48.95
2016-07-06T01:08:13.707Z,48.86
2016-07-06T01:09:14.389Z,48.95
2016-07-06T01:10:14.332Z,48.66
2016-07-06T01:11:13.721Z,49.15
2016-07-06T01:12:14.482Z,48.66
2016-07-06T01:13:13.736Z,49.34
2016-07-06T01:14:15.185Z,48.76
2016-07-06T01:15:13.743Z,48.76
2016-07-06T01:16:14.364Z,48.86
2016-07-06T01:17:14.369Z,48.57
2016-07-06T01:18:13.750Z,48.76
2016-07-06T01:19:13.758Z,48.86
2016-07-06T01:20:13.780Z,48.57
2016-07-06T01:21:13.772Z,48.76
2016-07-06T01:22:13.783Z,48.95
2016-07-06T01:23:14.398Z,49.15
2016-07-06T01:24:14.395Z,49.15
2016-07-06T01:25:14.902Z,48.86
2016-07-06T01:26:13.806Z,48.95
2016-07-06T01:27:14.418Z,49.63
2016-07-06T01:28:14.432Z,49.05
2016-07-06T01:29:14.429Z,49.53
2016-07-06T01:30:14.428Z,48.86
2016-07-06T01:31:14.436Z,48.95
2016-07-06T01:32:14.446Z,48.66
2016-07-06T01:33:14.446Z,49.73
2016-07-06T01:34:15.575Z,48.95
2016-07-06T01:35:13.854Z,49.34
2016-07-06T01:36:14.407Z,48.76
2016-07-06T01:37:14.479Z,49.82
2016-07-06T01:38:14.487Z,48.76
2016-07-06T01:39:14.493Z,49.24
2016-07-06T01:40:13.882Z,49.15
2016-07-06T01:41:14.500Z,49.34
2016-07-06T01:42:13.899Z,49.24
2016-07-06T01:43:14.515Z,49.15
2016-07-06T01:44:14.515Z,49.24
2016-07-06T01:45:15.174Z,48.95
2016-07-06T01:46:13.915Z,48.66
2016-07-06T01:47:13.973Z,49.24
2016-07-06T01:48:14.542Z,48.66
2016-07-06T01:49:14.547Z,48.95
2016-07-06T01:50:14.550Z,49.05
2016-07-06T01:51:14.562Z,49.15
2016-07-06T01:52:14.565Z,48.86
2016-07-06T01:53:14.561Z,48.76
2016-07-06T01:54:13.962Z,48.95
2016-07-06T01:55:14.572Z,49.24
2016-07-06T01:56:14.679Z,49.15
2016-07-06T01:57:14.587Z,49.05
2016-07-06T01:58:13.984Z,48.76
2016-07-06T01:59:14.596Z,48.86
2016-07-06T02:00:13.996Z,48.76
2016-07-06T02:01:14.726Z,49.15
2016-07-06T02:02:14.619Z,49.24
2016-07-06T02:03:14.673Z,48.57
2016-07-06T02:04:14.630Z,48.47
2016-07-06T02:05:14.022Z,48.57
2016-07-06T02:06:14.032Z,49.24
2016-07-06T02:07:14.139Z,48.57
2016-07-06T02:08:14.042Z,48.95
2016-07-06T02:09:14.660Z,48.57
2016-07-06T02:10:14.666Z,48.37
2016-07-06T02:11:14.046Z,48.47
2016-07-06T02:12:14.668Z,48.57
2016-07-06T02:13:14.669Z,48.57
2016-07-06T02:14:14.679Z,48.28
2016-07-06T02:15:14.081Z,48.37
2016-07-06T02:16:14.696Z,48.95
2016-07-06T02:17:14.092Z,48.08
2016-07-06T02:18:14.710Z,48.37
2016-07-06T02:19:14.101Z,48.86
2016-07-06T02:20:15.721Z,48.57
2016-07-06T02:21:14.730Z,48.57
2016-07-06T02:22:14.118Z,48.57
2016-07-06T02:23:14.736Z,48.76
2016-07-06T02:24:14.128Z,49.24
2016-07-06T02:25:14.744Z,49.24
2016-07-06T02:26:14.755Z,49.15
2016-07-06T02:27:14.762Z,48.57
2016-07-06T02:28:14.764Z,48.76
2016-07-06T02:29:14.157Z,48.57
2016-07-06T02:30:14.162Z,48.86
2016-07-06T02:31:15.421Z,48.76
2016-07-06T02:32:14.165Z,48.47
2016-07-06T02:33:14.788Z,48.57
2016-07-06T02:34:14.178Z,48.76
2016-07-06T02:35:14.181Z,48.57
2016-07-06T02:36:14.801Z,48.57
2016-07-06T02:37:14.811Z,48.76
2016-07-06T02:38:14.205Z,48.57
2016-07-06T02:39:14.823Z,48.57
2016-07-06T02:40:15.637Z,48.28
2016-07-06T02:41:14.846Z,48.47
2016-07-06T02:42:15.274Z,48.86
2016-07-06T02:43:14.844Z,48.57
2016-07-06T02:44:14.849Z,48.57
2016-07-06T02:45:14.855Z,48.47
2016-07-06T02:46:14.858Z,48.28
2016-07-06T02:47:14.855Z,48.47
2016-07-06T02:48:14.860Z,48.47
2016-07-06T02:49:14.267Z,48.37
2016-07-06T02:50:14.874Z,48.47
2016-07-06T02:51:15.993Z,48.37
2016-07-06T02:52:14.904Z,48.57
2016-07-06T02:53:15.054Z,48.47
2016-07-06T02:54:14.905Z,48.37
2016-07-06T02:55:14.296Z,48.47
2016-07-06T02:56:14.915Z,48.28
2016-07-06T02:57:14.921Z,48.37
2016-07-06T02:58:14.929Z,48.37
2016-07-06T02:59:14.930Z,48.18
2016-07-06T03:00:14.323Z,48.37
2016-07-06T03:01:14.939Z,48.37
2016-07-06T03:02:15.996Z,48.37
2016-07-06T03:03:14.392Z,48.47
2016-07-06T03:04:14.958Z,48.37
2016-07-06T03:05:14.963Z,48.86
2016-07-06T03:06:14.969Z,48.76
2016-07-06T03:07:14.976Z,48.66
2016-07-06T03:08:14.981Z,48.47
2016-07-06T03:09:14.367Z,48.37
2016-07-06T03:10:14.990Z,48.47
2016-07-06T03:11:14.999Z,48.76
2016-07-06T03:12:14.382Z,48.57
2016-07-06T03:13:15.492Z,48.76
2016-07-06T03:14:15.012Z,48.57
2016-07-06T03:15:14.547Z,48.47
2016-07-06T03:16:14.407Z,48.57
2016-07-06T03:17:14.405Z,48.76
2016-07-06T03:18:15.021Z,48.76
2016-07-06T03:19:15.030Z,49.15
2016-07-06T03:20:15.035Z,48.76
2016-07-06T03:21:14.426Z,49.15
2016-07-06T03:22:15.058Z,48.37
2016-07-06T03:23:15.059Z,48.95
2016-07-06T03:24:29.308Z,48.28
2016-07-06T03:25:14.446Z,49.05
2016-07-06T03:26:15.076Z,49.05
2016-07-06T03:27:14.468Z,49.15
2016-07-06T03:28:14.474Z,48.66
2016-07-06T03:29:15.096Z,48.57
2016-07-06T03:30:15.099Z,48.86
2016-07-06T03:31:14.491Z,48.76
2016-07-06T03:32:15.112Z,49.05
2016-07-06T03:33:15.115Z,48.86
2016-07-06T03:34:15.124Z,49.05
2016-07-06T03:35:15.526Z,48.66
2016-07-06T03:36:15.131Z,48.76
2016-07-06T03:37:15.126Z,48.37
2016-07-06T03:38:15.139Z,49.05
2016-07-06T03:39:15.146Z,49.05
2016-07-06T03:40:15.152Z,49.24
2016-07-06T03:41:15.149Z,49.32
2016-07-06T03:42:15.163Z,48.86
2016-07-06T03:43:15.164Z,48.57
2016-07-06T03:44:15.171Z,48.86
2016-07-06T03:45:15.177Z,48.37
2016-07-06T03:46:14.972Z,49.02
2016-07-06T03:47:14.569Z,48.47
2016-07-06T03:48:15.192Z,48.86
2016-07-06T03:49:14.578Z,48.95
2016-07-06T03:50:14.579Z,48.83
2016-07-06T03:51:15.197Z,48.86
2016-07-06T03:52:14.603Z,48.86
2016-07-06T03:53:15.227Z,48.86
2016-07-06T03:54:15.224Z,48.28
2016-07-06T03:55:14.619Z,49.05
2016-07-06T03:56:14.632Z,49.02
2016-07-06T03:57:14.678Z,48.86
2016-07-06T03:58:15.240Z,48.74
2016-07-06T03:59:14.632Z,48.74
2016-07-06T04:00:15.256Z,48.93
2016-07-06T04:01:14.650Z,48.93
2016-07-06T04:02:15.256Z,48.83
2016-07-06T04:03:14.656Z,49.02
2016-07-06T04:04:15.281Z,48.93
2016-07-06T04:05:14.673Z,48.83
2016-07-06T04:06:15.291Z,49.05
2016-07-06T04:07:15.342Z,49.05
2016-07-06T04:08:15.301Z,49.24
2016-07-06T04:09:15.304Z,48.83
2016-07-06T04:10:14.695Z,48.28
2016-07-06T04:11:14.701Z,48.35
2016-07-06T04:12:15.315Z,49.05
2016-07-06T04:13:15.327Z,48.95
2016-07-06T04:14:14.716Z,49.15
2016-07-06T04:15:14.720Z,48.86
2016-07-06T04:16:14.729Z,48.83
2016-07-06T04:17:15.345Z,48.83
2016-07-06T04:18:14.733Z,48.64
2016-07-06T04:19:15.456Z,48.86
2016-07-06T04:20:15.360Z,48.86
2016-07-06T04:21:14.748Z,48.86
2016-07-06T04:22:15.373Z,49.34
2016-07-06T04:23:14.777Z,49.05
2016-07-06T04:24:29.623Z,48.28
2016-07-06T04:25:15.391Z,48.74
2016-07-06T04:26:14.793Z,48.47
2016-07-06T04:27:14.782Z,48.76
2016-07-06T04:28:14.787Z,48.86
2016-07-06T04:29:15.398Z,48.83
2016-07-06T04:30:14.789Z,48.95
2016-07-06T04:31:15.415Z,49.24
2016-07-06T04:32:16.311Z,48.18
2016-07-06T04:33:14.821Z,49.15
2016-07-06T04:34:14.816Z,49.05
2016-07-06T04:35:14.830Z,48.76
2016-07-06T04:36:15.437Z,48.76
2016-07-06T04:37:14.837Z,48.28
2016-07-06T04:38:14.845Z,48.54
2016-07-06T04:39:15.461Z,48.64
2016-07-06T04:40:15.459Z,48.47
2016-07-06T04:41:15.462Z,48.76
2016-07-06T04:42:14.867Z,48.66
2016-07-06T04:43:14.869Z,48.57
2016-07-06T04:44:15.487Z,48.66
2016-07-06T04:45:15.497Z,48.76
2016-07-06T04:46:15.508Z,48.54
2016-07-06T04:47:14.892Z,48.44
2016-07-06T04:48:15.510Z,48.76
2016-07-06T04:49:14.904Z,48.47
2016-07-06T04:50:15.517Z,48.76
2016-07-06T04:51:14.916Z,48.57
2016-07-06T04:52:14.917Z,48.57
2016-07-06T04:53:15.532Z,48.18
2016-07-06T04:54:16.232Z,48.57
2016-07-06T04:55:14.936Z,48.47
2016-07-06T04:56:15.555Z,48.18
2016-07-06T04:57:15.558Z,48.16
2016-07-06T04:58:14.950Z,48.35
2016-07-06T04:59:14.948Z,48.08
2016-07-06T05:00:14.965Z,47.89
2016-07-06T05:01:14.967Z,48.37
2016-07-06T05:02:15.585Z,47.99
2016-07-06T05:03:15.594Z,48.37
2016-07-06T05:04:15.646Z,48.28
2016-07-06T05:05:16.101Z,48.28
2016-07-06T05:06:15.606Z,48.08
2016-07-06T05:07:15.000Z,48.28
2016-07-06T05:08:15.005Z,47.99
2016-07-06T05:09:15.630Z,48.28
2016-07-06T05:10:15.169Z,48.18
2016-07-06T05:11:15.645Z,48.08
2016-07-06T05:12:15.641Z,48.37
2016-07-06T05:13:15.027Z,48.37
2016-07-06T05:14:15.660Z,48.37
2016-07-06T05:15:15.658Z,47.8
2016-07-06T05:16:16.773Z,48.08
2016-07-06T05:17:15.674Z,47.43
2016-07-06T05:18:15.068Z,47.41
2016-07-06T05:19:15.686Z,46.95
2016-07-06T05:20:15.091Z,47.24
2016-07-06T05:21:15.707Z,47.53
2016-07-06T05:22:15.701Z,47.53
2016-07-06T05:23:15.717Z,47.33
2016-07-06T05:24:15.107Z,46.95
2016-07-06T05:25:15.114Z,46.75
2016-07-06T05:26:15.737Z,46.75
2016-07-06T05:27:16.792Z,46.27
2016-07-06T05:28:15.138Z,46.37
2016-07-06T05:29:15.754Z,46.27
2016-07-06T05:30:15.147Z,46.17
2016-07-06T05:31:15.153Z,45.91
2016-07-06T05:32:15.779Z,45.72
2016-07-06T05:33:15.167Z,45.33
2016-07-06T05:34:15.790Z,45.62
2016-07-06T05:35:15.802Z,45.72
2016-07-06T05:36:15.802Z,45.64
2016-07-06T05:37:15.200Z,45.64
2016-07-06T05:38:16.873Z,45.23
2016-07-06T05:39:15.827Z,45.35
2016-07-06T05:40:15.840Z,44.96
2016-07-06T05:41:15.843Z,45.45
2016-07-06T05:42:15.852Z,44.96
2016-07-06T05:43:15.251Z,45.16
2016-07-06T05:44:15.251Z,45.06
2016-07-06T05:45:15.876Z,44.77
2016-07-06T05:46:15.888Z,44.67
2016-07-06T05:47:15.880Z,45.06
2016-07-06T05:48:15.287Z,44.67
2016-07-06T05:49:16.426Z,44.67
2016-07-06T05:50:15.923Z,44.87
2016-07-06T05:51:15.312Z,44.29
2016-07-06T05:52:15.936Z,43.92
2016-07-06T05:53:15.947Z,44.21
2016-07-06T05:54:15.342Z,44.31
2016-07-06T05:55:15.358Z,44.21
2016-07-06T05:56:15.970Z,44.4
2016-07-06T05:57:15.982Z,44.12
2016-07-06T05:58:15.988Z,44.12
2016-07-06T05:59:15.988Z,44.02
2016-07-06T06:00:16.959Z,43.92
2016-07-06T06:01:16.016Z,43.92
2016-07-06T06:02:15.406Z,43.73
2016-07-06T06:03:16.083Z,44.12
2016-07-06T06:04:16.041Z,44.31
2016-07-06T06:05:15.440Z,43.55
2016-07-06T06:06:15.449Z,43.37
2016-07-06T06:07:16.071Z,43.55
2016-07-06T06:08:15.466Z,43.46
2016-07-06T06:09:15.481Z,43.37
2016-07-06T06:10:16.097Z,43.27
2016-07-06T06:11:16.146Z,43.27
2016-07-06T06:12:15.506Z,43.27
2016-07-06T06:13:16.129Z,43.07
2016-07-06T06:14:16.141Z,43.46
2016-07-06T06:15:15.530Z,43.27
2016-07-06T06:16:15.537Z,43.37
2016-07-06T06:17:16.167Z,42.88
2016-07-06T06:18:15.558Z,43.07
2016-07-06T06:19:16.183Z,43.07
2016-07-06T06:20:17.293Z,42.88
2016-07-06T06:21:16.202Z,42.78
2016-07-06T06:22:16.855Z,42.68
2016-07-06T06:23:16.214Z,42.49
2016-07-06T06:24:16.229Z,42.9
2016-07-06T06:25:15.623Z,42.59
2016-07-06T06:26:15.636Z,42.88
2016-07-06T06:27:16.261Z,43.07
2016-07-06T06:28:16.270Z,42.78
2016-07-06T06:29:15.669Z,42.61
2016-07-06T06:30:15.672Z,42.9
2016-07-06T06:31:17.427Z,43.37
2016-07-06T06:32:16.311Z,43.46
2016-07-06T06:33:16.351Z,43.82
2016-07-06T06:34:15.699Z,43.73
2016-07-06T06:35:16.327Z,43.92
2016-07-06T06:36:15.720Z,43.55
2016-07-06T06:37:15.735Z,43.37
2016-07-06T06:38:16.349Z,43.46
2016-07-06T06:39:16.363Z,43.63
2016-07-06T06:40:15.758Z,44.02
2016-07-06T06:41:15.763Z,43.82
2016-07-06T06:42:15.776Z,43.82
2016-07-06T06:43:16.394Z,43.95
2016-07-06T06:44:16.807Z,43.92
2016-07-06T06:45:16.411Z,43.17
2016-07-06T06:46:16.422Z,43.65
2016-07-06T06:47:15.816Z,44.04
2016-07-06T06:48:16.443Z,44.12
2016-07-06T06:49:15.832Z,44.02
2016-07-06T06:50:16.441Z,44.02
2016-07-06T06:51:15.840Z,43.34
2016-07-06T06:52:16.464Z,42.97
2016-07-06T06:53:15.854Z,42.68
2016-07-06T06:54:16.484Z,42.97
2016-07-06T06:55:17.240Z,42.59
2016-07-06T06:56:15.883Z,42.41
2016-07-06T06:57:15.891Z,42.32
2016-07-06T06:58:15.903Z,42.71
2016-07-06T06:59:16.531Z,42.61
2016-07-06T07:00:15.921Z,42.88
2016-07-06T07:01:15.927Z,42.88
2016-07-06T07:02:16.540Z,43.17
2016-07-06T07:03:16.570Z,43.07
2016-07-06T07:04:15.967Z,43.07
2016-07-06T07:05:16.571Z,42.9
2016-07-06T07:06:17.232Z,42.49
2016-07-06T07:07:16.591Z,42.8
2016-07-06T07:08:16.600Z,42.78
2016-07-06T07:09:16.611Z,43.37
2016-07-06T07:10:15.994Z,43.46
2016-07-06T07:11:16.059Z,44.02
2016-07-06T07:12:16.619Z,43.92
2016-07-06T07:13:16.021Z,44.12
2016-07-06T07:14:16.642Z,44.21
2016-07-06T07:15:16.035Z,43.34
2016-07-06T07:16:16.663Z,43.55
2016-07-06T07:17:17.218Z,43.17
2016-07-06T07:18:16.677Z,42.49
2016-07-06T07:19:16.073Z,42.03
2016-07-06T07:20:16.696Z,41.06
2016-07-06T07:21:16.090Z,41.74
2016-07-06T07:22:16.711Z,41.55
2016-07-06T07:23:16.106Z,41.37
2016-07-06T07:24:30.969Z,41.56
2016-07-06T07:25:16.132Z,41.17
2016-07-06T07:26:17.590Z,41.17
2016-07-06T07:27:16.755Z,41.08
2016-07-06T07:28:16.504Z,41.37
2016-07-06T07:29:16.773Z,41.27
2016-07-06T07:30:16.173Z,41.08
2016-07-06T07:31:16.180Z,41.66
2016-07-06T07:32:16.807Z,41.27
2016-07-06T07:33:16.819Z,41.27
2016-07-06T07:34:16.823Z,41.27
2016-07-06T07:35:16.835Z,41.37
2016-07-06T07:36:16.846Z,41.95
2016-07-06T07:37:16.234Z,41.83
2016-07-06T07:38:16.859Z,42.71
2016-07-06T07:39:17.263Z,42.51
2016-07-06T07:40:16.882Z,42.32
2016-07-06T07:41:16.276Z,42.4
2016-07-06T07:42:16.284Z,42.03
2016-07-06T07:43:16.908Z,41.83
2016-07-06T07:44:16.309Z,41.35
2016-07-06T07:45:16.925Z,41.17
2016-07-06T07:46:16.924Z,42.03
2016-07-06T07:47:16.943Z,42.03
2016-07-06T07:48:16.340Z,41.35
2016-07-06T07:49:16.960Z,41.16
2016-07-06T07:50:17.370Z,41.56
2016-07-06T07:51:16.975Z,41.45
2016-07-06T07:52:16.372Z,41.27
2016-07-06T07:53:16.993Z,41.27
2016-07-06T07:54:17.890Z,41.17
2016-07-06T07:55:16.392Z,41.47
2016-07-06T07:56:17.013Z,41.17
2016-07-06T07:57:17.020Z,41.64
2016-07-06T07:58:17.029Z,42.51
2016-07-06T07:59:17.982Z,42.41
2016-07-06T08:00:17.038Z,42.61
2016-07-06T08:01:17.449Z,42.32
2016-07-06T08:02:17.054Z,42.41
2016-07-06T08:03:16.453Z,42.61
2016-07-06T08:04:16.459Z,41.93
2016-07-06T08:05:17.193Z,42.41
2016-07-06T08:06:16.481Z,42.41
2016-07-06T08:07:17.091Z,42.32
2016-07-06T08:08:16.486Z,42.78
2016-07-06T08:09:16.495Z,42.3
2016-07-06T08:10:17.761Z,42.49
2016-07-06T08:11:17.119Z,43.07
2016-07-06T08:12:16.659Z,42.78
2016-07-06T08:13:17.130Z,42.49
2016-07-06T08:14:16.574Z,43.07
2016-07-06T08:15:16.529Z,42.68
2016-07-06T08:16:17.149Z,42.59
2016-07-06T08:17:17.159Z,43.17
2016-07-06T08:18:17.162Z,42.78
2016-07-06T08:19:17.170Z,42.97
2016-07-06T08:20:16.562Z,43.17
2016-07-06T08:21:17.784Z,42.78
2016-07-06T08:22:17.191Z,43.07
2016-07-06T08:23:17.345Z,43.07
2016-07-06T08:24:17.204Z,43.37
2016-07-06T08:25:17.213Z,43.55
2016-07-06T08:26:17.217Z,43.07
2016-07-06T08:27:16.616Z,43.54
2016-07-06T08:28:17.238Z,43.27
2016-07-06T08:29:17.248Z,42.86
2016-07-06T08:30:17.249Z,43.05
2016-07-06T08:31:16.646Z,43.05
2016-07-06T08:32:18.019Z,43.54
2016-07-06T08:33:17.270Z,43.15
2016-07-06T08:34:17.577Z,43.15
2016-07-06T08:35:16.672Z,43.15
2016-07-06T08:36:17.290Z,43.44
2016-07-06T08:37:17.303Z,43.24
2016-07-06T08:38:17.308Z,43.44
2016-07-06T08:39:17.317Z,43.44
2016-07-06T08:40:17.319Z,43.44
2016-07-06T08:41:16.707Z,43.34
2016-07-06T08:42:17.335Z,43.54
2016-07-06T08:43:16.729Z,43.05
2016-07-06T08:44:17.346Z,43.05
2016-07-06T08:45:17.702Z,43.63
2016-07-06T08:46:16.749Z,43.34
2016-07-06T08:47:17.365Z,43.15
2016-07-06T08:48:17.372Z,42.86
2016-07-06T08:49:16.773Z,43.15
2016-07-06T08:50:16.768Z,42.96
2016-07-06T08:51:16.783Z,43.24
2016-07-06T08:52:17.403Z,43.54
2016-07-06T08:53:17.407Z,43.15
2016-07-06T08:54:16.798Z,43.34
2016-07-06T08:55:16.815Z,43.54
2016-07-06T08:56:17.016Z,43.15
2016-07-06T08:57:17.436Z,42.86
2016-07-06T08:58:17.447Z,43.34
2016-07-06T08:59:17.454Z,43.54
2016-07-06T09:00:16.846Z,43.44
2016-07-06T09:01:17.467Z,43.44
2016-07-06T09:02:17.474Z,43.15
2016-07-06T09:03:16.866Z,43.24
2016-07-06T09:04:17.489Z,43.44
2016-07-06T09:05:18.149Z,42.86
2016-07-06T09:06:17.501Z,43.34
2016-07-06T09:07:17.667Z,43.24
2016-07-06T09:08:16.898Z,43.24
2016-07-06T09:09:17.572Z,42.96
2016-07-06T09:10:16.923Z,43.15
2016-07-06T09:11:17.538Z,43.05
2016-07-06T09:12:16.935Z,43.24
2016-07-06T09:13:16.938Z,43.34
2016-07-06T09:14:16.943Z,42.96
2016-07-06T09:15:17.579Z,42.86
2016-07-06T09:16:18.021Z,43.15
2016-07-06T09:17:17.577Z,43.05
2016-07-06T09:18:17.584Z,43.15
2016-07-06T09:19:17.589Z,43.05
2016-07-06T09:20:16.984Z,43.05
2016-07-06T09:21:16.988Z,43.15
2016-07-06T09:22:16.997Z,43.34
2016-07-06T09:23:17.005Z,43.24
2016-07-06T09:24:17.359Z,42.96
2016-07-06T09:25:17.015Z,43.34
2016-07-06T09:26:17.025Z,43.05
2016-07-06T09:27:17.986Z,43.24
2016-07-06T09:28:17.037Z,43.05
2016-07-06T09:29:17.043Z,43.15
2016-07-06T09:30:17.053Z,43.34
2016-07-06T09:31:17.674Z,43.24
2016-07-06T09:32:17.679Z,43.05
2016-07-06T09:33:17.679Z,42.86
2016-07-06T09:34:17.691Z,42.76
2016-07-06T09:35:17.697Z,42.86
2016-07-06T09:36:17.699Z,42.76
2016-07-06T09:37:17.108Z,42.76
2016-07-06T09:38:17.963Z,42.66
2016-07-06T09:39:17.721Z,42.57
2016-07-06T09:40:17.111Z,42.28
2016-07-06T09:41:17.119Z,42.86
2016-07-06T09:42:17.743Z,42.66
2016-07-06T09:43:17.140Z,42.96
2016-07-06T09:44:17.148Z,42.86
2016-07-06T09:45:17.768Z,42.76
2016-07-06T09:46:17.157Z,43.15
2016-07-06T09:47:17.165Z,43.05
2016-07-06T09:48:17.781Z,43.05
2016-07-06T09:49:17.783Z,42.76
2016-07-06T09:50:17.183Z,42.86
2016-07-06T09:51:17.807Z,42.57
2016-07-06T09:52:17.199Z,43.15
2016-07-06T09:53:17.820Z,42.66
2016-07-06T09:54:17.222Z,42.76
2016-07-06T09:55:17.221Z,42.86
2016-07-06T09:56:17.833Z,42.96
2016-07-06T09:57:17.235Z,42.76
2016-07-06T09:58:17.232Z,43.24
2016-07-06T09:59:17.870Z,42.76
2016-07-06T10:00:17.873Z,42.66
2016-07-06T10:01:17.865Z,43.05
2016-07-06T10:02:17.872Z,42.47
2016-07-06T10:03:17.269Z,42.76
2016-07-06T10:04:17.879Z,43.44
2016-07-06T10:05:17.890Z,43.34
2016-07-06T10:06:17.907Z,42.96
2016-07-06T10:07:17.299Z,42.96
2016-07-06T10:08:17.307Z,42.86
2016-07-06T10:09:17.305Z,43.15
2016-07-06T10:10:17.931Z,42.86
2016-07-06T10:11:17.938Z,42.86
2016-07-06T10:12:17.332Z,43.15
2016-07-06T10:13:17.952Z,43.05
2016-07-06T10:14:17.347Z,42.96
2016-07-06T10:15:17.962Z,42.96
2016-07-06T10:16:17.363Z,43.24
2016-07-06T10:17:17.357Z,42.76
2016-07-06T10:18:17.982Z,43.34
2016-07-06T10:19:17.988Z,43.15
2016-07-06T10:20:17.391Z,43.05
2016-07-06T10:21:18.006Z,42.86
2016-07-06T10:22:18.010Z,43.05
2016-07-06T10:23:17.405Z,43.23
2016-07-06T10:24:17.409Z,43.34
2016-07-06T10:25:17.416Z,43.24
2016-07-06T10:26:18.083Z,43.24
2016-07-06T10:27:17.425Z,43.32
2016-07-06T10:28:18.050Z,43.44
2016-07-06T10:29:18.056Z,42.86
2016-07-06T10:30:17.450Z,43.24
2016-07-06T10:31:17.447Z,43.24
2016-07-06T10:32:18.072Z,42.96
2016-07-06T10:33:18.091Z,42.86
2016-07-06T10:34:18.091Z,42.18
2016-07-06T10:35:18.093Z,43.24
2016-07-06T10:36:18.104Z,42.74
2016-07-06T10:37:18.110Z,43.03
2016-07-06T10:38:18.125Z,42.45
2016-07-06T10:39:17.521Z,42.74
2016-07-06T10:40:17.521Z,43.23
2016-07-06T10:41:18.144Z,43.03
2016-07-06T10:42:17.531Z,42.74
2016-07-06T10:43:17.538Z,42.83
2016-07-06T10:44:18.246Z,42.65
2016-07-06T10:45:18.163Z,42.65
2016-07-06T10:46:17.558Z,42.55
2016-07-06T10:47:18.178Z,42.35
2016-07-06T10:48:17.573Z,42.45
2016-07-06T10:49:18.188Z,42.74
2016-07-06T10:50:18.199Z,42.55
2016-07-06T10:51:18.205Z,42.55
2016-07-06T10:52:17.590Z,42.83
2016-07-06T10:53:18.216Z,42.93
2016-07-06T10:54:17.610Z,42.16
2016-07-06T10:55:18.428Z,42.74
2016-07-06T10:56:20.767Z,42.65
2016-07-06T10:57:17.631Z,42.74
2016-07-06T10:58:17.632Z,42.74
2016-07-06T10:59:17.643Z,42.83
2016-07-06T11:00:17.646Z,42.25
2016-07-06T11:01:18.267Z,42.45
2016-07-06T11:02:18.273Z,42.35
2016-07-06T11:03:17.667Z,42.37
2016-07-06T11:04:17.674Z,42.55
2016-07-06T11:05:17.679Z,42.18
2016-07-06T11:06:18.693Z,41.77
2016-07-06T11:07:18.306Z,41.39
2016-07-06T11:08:17.700Z,42.47
2016-07-06T11:09:17.719Z,42.37
2016-07-06T11:10:17.713Z,42.08
2016-07-06T11:11:18.333Z,41.89
2016-07-06T11:12:18.335Z,42.47
2016-07-06T11:13:18.345Z,42.18
2016-07-06T11:14:17.734Z,42.57
2016-07-06T11:15:18.359Z,41.79
2016-07-06T11:16:18.364Z,41.79
2016-07-06T11:17:18.720Z,42.47
2016-07-06T11:18:18.376Z,42.47
2016-07-06T11:19:18.382Z,42.37
2016-07-06T11:20:17.777Z,42.37
2016-07-06T11:21:18.398Z,42.28
2016-07-06T11:22:18.403Z,42.47
2016-07-06T11:23:17.797Z,42.66
2016-07-06T11:24:18.416Z,42.37
2016-07-06T11:25:18.421Z,42.47
2016-07-06T11:26:18.434Z,41.89
2016-07-06T11:27:17.822Z,42.37
2016-07-06T11:28:18.968Z,42.57
2016-07-06T11:29:18.444Z,42.28
2016-07-06T11:30:17.941Z,42.47
2016-07-06T11:31:17.846Z,42.47
2016-07-06T11:32:17.841Z,42.28
2016-07-06T11:33:17.853Z,42.35
2016-07-06T11:34:18.471Z,42.16
2016-07-06T11:35:17.871Z,42.37
2016-07-06T11:36:18.481Z,42.37
2016-07-06T11:37:18.501Z,42.37
2016-07-06T11:38:17.892Z,42.86
2016-07-06T11:39:19.058Z,42.74
2016-07-06T11:40:18.508Z,42.45
2016-07-06T11:41:18.565Z,42.57
2016-07-06T11:42:17.913Z,42.57
2016-07-06T11:43:18.531Z,42.35
2016-07-06T11:44:17.923Z,42.28
2016-07-06T11:45:18.546Z,42.65
2016-07-06T11:46:17.931Z,42.74
2016-07-06T11:47:17.938Z,42.16
2016-07-06T11:48:18.560Z,42.47
2016-07-06T11:49:18.565Z,42.37
2016-07-06T11:50:19.122Z,42.47
2016-07-06T11:51:18.579Z,42.28
2016-07-06T11:52:18.636Z,42.25
2016-07-06T11:53:18.590Z,42.45
2016-07-06T11:54:18.596Z,42.47
2016-07-06T11:55:18.605Z,41.29
2016-07-06T11:56:17.996Z,41.79
2016-07-06T11:57:18.008Z,41.6
2016-07-06T11:58:18.624Z,41.41
2016-07-06T11:59:18.633Z,41.6
2016-07-06T12:00:18.022Z,40.92
2016-07-06T12:01:18.032Z,41.7
2016-07-06T12:02:18.036Z,41.21
2016-07-06T12:03:18.290Z,41.5
2016-07-06T12:04:18.666Z,41.7
2016-07-06T12:05:18.053Z,41.89
2016-07-06T12:06:18.685Z,41.99
2016-07-06T12:07:18.115Z,41.6
2016-07-06T12:08:18.082Z,41.11
2016-07-06T12:09:18.088Z,41.99
2016-07-06T12:10:18.748Z,41.79
2016-07-06T12:11:18.704Z,42.47
2016-07-06T12:12:18.111Z,41.41
2016-07-06T12:13:18.723Z,42.66
2016-07-06T12:14:18.573Z,41.99
2016-07-06T12:15:18.739Z,42.57
2016-07-06T12:16:18.746Z,42.37
2016-07-06T12:17:18.754Z,42.18
2016-07-06T12:18:18.753Z,42.37
2016-07-06T12:19:18.155Z,42.18
2016-07-06T12:20:18.772Z,42.18
2016-07-06T12:21:18.782Z,42.76
2016-07-06T12:22:18.784Z,42.18
2016-07-06T12:23:18.174Z,42.47
2016-07-06T12:24:18.181Z,42.47
2016-07-06T12:25:19.450Z,42.57
2016-07-06T12:26:18.201Z,42.37
2016-07-06T12:27:18.206Z,42.37
2016-07-06T12:28:18.832Z,42.47
2016-07-06T12:29:18.826Z,42.76
2016-07-06T12:30:18.841Z,42.66
2016-07-06T12:31:18.841Z,42.37
2016-07-06T12:32:18.848Z,42.47
2016-07-06T12:33:18.865Z,42.37
2016-07-06T12:34:18.261Z,42.57
2016-07-06T12:35:18.869Z,42.76
2016-07-06T12:36:19.008Z,42.96
2016-07-06T12:37:18.884Z,42.66
2016-07-06T12:38:18.266Z,41.6
2016-07-06T12:39:18.897Z,42.28
2016-07-06T12:40:18.907Z,42.66
2016-07-06T12:41:18.300Z,42.28
2016-07-06T12:42:18.307Z,42.18
2016-07-06T12:43:18.913Z,41.7
2016-07-06T12:44:18.316Z,42.37
2016-07-06T12:45:18.941Z,42.66
2016-07-06T12:46:18.946Z,42.37
2016-07-06T12:47:19.948Z,42.76
2016-07-06T12:48:18.948Z,42.66
2016-07-06T12:49:18.342Z,42.28
2016-07-06T12:50:18.347Z,41.89
2016-07-06T12:51:18.974Z,42.47
2016-07-06T12:52:18.366Z,42.28
2016-07-06T12:53:18.368Z,42.37